Time;durP1;ratioP1;P1;durP2;ratioP2;P2;SDS_P1;SDS_P2;PMS_P1;PMS_P2;Temp;Humidity;BMP_temperature;BMP_pressure;BME280_temperature;BME280_humidity;BME280_pressure;Samples;Min_cycle;Max_cycle;Signal;HPM_P1;HPM_P2
2021/03/06 00:05:48;;;;;;;2.47;2.22;;;;;;;;;;4631207;28;20179;-48
2021/03/06 00:08:14;;;;;;;3.90;2.60;;;;;;;;;;4192434;34;20103;-51
2021/03/06 00:10:40;;;;;;;2.60;2.40;;;;;;;;;;4192441;34;20125;-50
2021/03/06 00:13:06;;;;;;;3.10;2.45;;;;;;;;;;4192820;34;20217;-50
2021/03/06 00:15:31;;;;;;;3.70;3.10;;;;;;;;;;4192223;34;20544;-51
2021/03/06 00:17:57;;;;;;;3.10;2.65;;;;;;;;;;4192451;34;20576;-54
2021/03/06 00:20:23;;;;;;;3.42;2.37;;;;;;;;;;4192390;34;20098;-52
2021/03/06 00:22:53;;;;;;;2.55;2.35;;;;;;;;;;4192327;34;20209;-46
2021/03/06 00:25:19;;;;;;;3.35;2.40;;;;;;;;;;4192339;34;20214;-52
2021/03/06 00:27:45;;;;;;;4.82;2.87;;;;;;;;;;4192390;34;20118;-46
2021/03/06 00:30:12;;;;;;;5.07;2.62;;;;;;;;;;4192196;34;20344;-52
2021/03/06 00:32:38;;;;;;;3.90;2.65;;;;;;;;;;4192605;34;20098;-52
2021/03/06 00:35:06;;;;;;;4.00;2.25;;;;;;;;;;4192410;34;20140;-52
2021/03/06 00:37:32;;;;;;;2.37;2.12;;;;;;;;;;4192623;34;20534;-52
2021/03/06 00:39:57;;;;;;;3.67;2.28;;;;;;;;;;4192073;34;20221;-55
2021/03/06 00:42:23;;;;;;;2.55;2.25;;;;;;;;;;4192232;34;20153;-51
2021/03/06 00:44:49;;;;;;;2.30;2.10;;;;;;;;;;4192235;34;20140;-52
2021/03/06 00:47:15;;;;;;;2.80;1.98;;;;;;;;;;4192290;34;20114;-48
2021/03/06 00:49:41;;;;;;;4.32;2.60;;;;;;;;;;4192367;34;20114;-48
2021/03/06 00:52:07;;;;;;;2.92;2.10;;;;;;;;;;4190768;34;20102;-48
2021/03/06 00:54:33;;;;;;;3.17;2.30;;;;;;;;;;4192284;34;20122;-52
2021/03/06 00:56:59;;;;;;;3.97;2.70;;;;;;;;;;4192018;34;20120;-46
2021/03/06 00:59:24;;;;;;;6.15;2.50;;;;;;;;;;4192134;34;20569;-48
2021/03/06 01:01:50;;;;;;;2.75;2.53;;;;;;;;;;4192034;34;20118;-46
2021/03/06 01:04:16;;;;;;;3.30;2.60;;;;;;;;;;4192014;34;20110;-52
2021/03/06 01:06:42;;;;;;;3.17;2.50;;;;;;;;;;4198621;34;20117;-52
2021/03/06 01:09:09;;;;;;;3.10;2.80;;;;;;;;;;4205877;34;20189;-53
2021/03/06 01:11:34;;;;;;;3.28;2.60;;;;;;;;;;4205807;34;20133;-46
2021/03/06 01:14:00;;;;;;;4.18;2.87;;;;;;;;;;4205820;34;20280;-52
2021/03/06 01:16:26;;;;;;;3.75;2.45;;;;;;;;;;4205318;34;20129;-50
2021/03/06 01:18:52;;;;;;;3.30;2.53;;;;;;;;;;4205998;34;20302;-51
2021/03/06 01:21:18;;;;;;;3.22;2.70;;;;;;;;;;4205852;34;20204;-51
2021/03/06 01:23:44;;;;;;;3.45;2.30;;;;;;;;;;4205997;34;20121;-46
2021/03/06 01:26:10;;;;;;;2.70;2.47;;;;;;;;;;4192723;34;20118;-49
2021/03/06 01:28:36;;;;;;;3.00;2.62;;;;;;;;;;4205973;34;20104;-50
2021/03/06 01:31:01;;;;;;;2.87;2.30;;;;;;;;;;4205837;34;20117;-49
2021/03/06 01:33:27;;;;;;;2.62;2.03;;;;;;;;;;4205926;34;20102;-50
2021/03/06 01:35:53;;;;;;;2.90;2.22;;;;;;;;;;4205622;34;20133;-53
2021/03/06 01:38:19;;;;;;;4.85;2.53;;;;;;;;;;4205854;34;20212;-48
2021/03/06 01:40:45;;;;;;;3.97;2.60;;;;;;;;;;4199047;34;20142;-47
2021/03/06 01:43:12;;;;;;;3.10;2.40;;;;;;;;;;4192020;34;20118;-50
2021/03/06 01:45:38;;;;;;;2.40;2.20;;;;;;;;;;4191534;34;20115;-51
2021/03/06 01:48:04;;;;;;;4.55;2.65;;;;;;;;;;4191754;34;20530;-49
2021/03/06 01:50:34;;;;;;;2.87;2.15;;;;;;;;;;4191559;34;20484;-50
2021/03/06 01:53:01;;;;;;;2.75;2.40;;;;;;;;;;4191762;34;20544;-53
2021/03/06 01:55:27;;;;;;;2.95;2.40;;;;;;;;;;4191711;34;20094;-49
2021/03/06 01:57:53;;;;;;;4.10;2.50;;;;;;;;;;4178837;34;20220;-52
2021/03/06 02:00:20;;;;;;;3.85;3.33;;;;;;;;;;4191433;34;20545;-56
2021/03/06 02:02:47;;;;;;;3.05;2.67;;;;;;;;;;4191586;34;20524;-48
2021/03/06 02:05:14;;;;;;;2.65;2.17;;;;;;;;;;4191187;34;20130;-52
2021/03/06 02:07:40;;;;;;;3.08;2.20;;;;;;;;;;4201851;34;20094;-47
2021/03/06 02:10:06;;;;;;;3.00;2.67;;;;;;;;;;4205281;34;20117;-54
2021/03/06 02:12:38;;;;;;;2.92;2.45;;;;;;;;;;4181364;34;20519;-57
2021/03/06 02:15:15;;;;;;;6.78;6.10;;;;;;;;;;4197489;34;20227;-45
2021/03/06 02:17:59;;;;;;;6.75;4.75;;;;;;;;;;4176814;34;20114;-50
2021/03/06 02:20:34;;;;;;;3.28;2.70;;;;;;;;;;4189314;34;20441;-53
2021/03/06 02:23:37;;;;;;;3.50;2.55;;;;;;;;;;4176766;34;20521;-57
2021/03/06 02:26:42;;;;;;;4.07;2.47;;;;;;;;;;4191390;34;20104;-45
2021/03/06 02:29:27;;;;;;;3.47;2.25;;;;;;;;;;4147957;34;20135;-48
2021/03/06 02:31:54;;;;;;;4.10;3.70;;;;;;;;;;4188713;34;20626;-57
2021/03/06 02:34:23;;;;;;;3.75;2.97;;;;;;;;;;4191283;34;20517;-50
2021/03/06 02:36:55;;;;;;;3.85;2.58;;;;;;;;;;4167467;34;20110;-50
2021/03/06 02:39:22;;;;;;;9.63;7.68;;;;;;;;;;4178869;34;20471;-54
2021/03/06 02:41:48;;;;;;;3.83;3.05;;;;;;;;;;4178267;34;20118;-45
2021/03/06 02:44:14;;;;;;;2.97;2.35;;;;;;;;;;4178777;34;20113;-47
2021/03/06 02:46:40;;;;;;;3.55;2.70;;;;;;;;;;4178291;34;20209;-50
2021/03/06 02:49:06;;;;;;;3.42;2.50;;;;;;;;;;4167059;34;20118;-53
2021/03/06 02:51:50;;;;;;;3.40;2.83;;;;;;;;;;4191147;34;20118;-49
2021/03/06 02:54:16;;;;;;;3.97;2.95;;;;;;;;;;4191231;34;20126;-54
2021/03/06 02:56:42;;;;;;;4.68;2.62;;;;;;;;;;4191015;34;20101;-47
2021/03/06 02:59:38;;;;;;;3.00;2.37;;;;;;;;;;4178283;34;20113;-50
2021/03/06 03:02:46;;;;;;;2.90;2.60;;;;;;;;;;4191029;34;20114;-49
2021/03/06 03:05:11;;;;;;;;;;;;;;;;;;4174382;34;20106;-51
2021/03/06 03:08:10;;;;;;;3.58;2.42;;;;;;;;;;4190603;34;20053;-46
2021/03/06 03:10:38;;;;;;;3.25;2.92;;;;;;;;;;4187214;34;20128;-53
2021/03/06 03:13:07;;;;;;;3.58;2.80;;;;;;;;;;4167230;34;20181;-47
2021/03/06 03:15:44;;;;;;;2.92;2.60;;;;;;;;;;4190949;34;20533;-46
2021/03/06 03:18:17;;;;;;;3.53;2.90;;;;;;;;;;4167512;34;20188;-49
2021/03/06 03:20:45;;;;;;;5.82;2.58;;;;;;;;;;4177982;34;20179;-54
2021/03/06 03:23:14;;;;;;;2.75;2.42;;;;;;;;;;4167200;34;20501;-47
2021/03/06 03:25:40;;;;;;;4.32;2.90;;;;;;;;;;4190849;34;20218;-56
2021/03/06 03:28:08;;;;;;;3.30;2.67;;;;;;;;;;4178077;34;20128;-50
2021/03/06 03:30:34;;;;;;;4.10;2.85;;;;;;;;;;4177902;34;20554;-49
2021/03/06 03:33:00;;;;;;;4.20;2.70;;;;;;;;;;4178048;34;20204;-46
2021/03/06 03:35:26;;;;;;;4.60;3.37;;;;;;;;;;4177813;34;20095;-53
2021/03/06 03:37:53;;;;;;;3.15;2.75;;;;;;;;;;4177915;34;20513;-50
2021/03/06 03:40:19;;;;;;;4.12;3.10;;;;;;;;;;4179251;34;20201;-48
2021/03/06 03:42:48;;;;;;;3.45;2.90;;;;;;;;;;4180034;34;20125;-48
2021/03/06 03:45:16;;;;;;;3.10;2.80;;;;;;;;;;4168958;34;20118;-54
2021/03/06 03:47:41;;;;;;;3.67;2.75;;;;;;;;;;4180087;34;20534;-50
2021/03/06 03:50:12;;;;;;;3.75;2.90;;;;;;;;;;4168594;34;20140;-49
2021/03/06 03:52:44;;;;;;;5.25;3.78;;;;;;;;;;4192732;34;20525;-48
2021/03/06 03:55:11;;;;;;;4.30;3.28;;;;;;;;;;4192425;34;20147;-52
2021/03/06 03:57:37;;;;;;;3.75;3.17;;;;;;;;;;4192626;34;20529;-50
2021/03/06 04:00:08;;;;;;;3.72;3.33;;;;;;;;;;4192517;34;20530;-51
2021/03/06 04:02:34;;;;;;;6.03;4.10;;;;;;;;;;4192842;34;20094;-53
2021/03/06 04:05:01;;;;;;;5.25;3.87;;;;;;;;;;4179559;34;20205;-54
2021/03/06 04:07:27;;;;;;;5.40;4.22;;;;;;;;;;4193059;34;20608;-52
2021/03/06 04:09:53;;;;;;;5.22;4.05;;;;;;;;;;4192653;34;20583;-49
2021/03/06 04:12:20;;;;;;;4.57;3.90;;;;;;;;;;4192556;34;20120;-48
2021/03/06 04:14:46;;;;;;;4.00;3.50;;;;;;;;;;4179763;34;20118;-49
2021/03/06 04:17:13;;;;;;;5.12;3.70;;;;;;;;;;4192812;34;20113;-54
2021/03/06 04:19:39;;;;;;;4.75;4.00;;;;;;;;;;4192654;34;20126;-54
2021/03/06 04:22:08;;;;;;;6.70;4.90;;;;;;;;;;4192645;34;20106;-49
2021/03/06 04:24:34;;;;;;;8.25;5.90;;;;;;;;;;4192609;34;20121;-49
2021/03/06 04:27:00;;;;;;;8.80;6.62;;;;;;;;;;4192870;34;20097;-52
2021/03/06 04:29:26;;;;;;;8.63;5.68;;;;;;;;;;4179819;34;20090;-51
2021/03/06 04:31:55;;;;;;;7.37;5.62;;;;;;;;;;4168361;34;20197;-55
2021/03/06 04:34:22;;;;;;;6.90;5.53;;;;;;;;;;4192629;34;20513;-50
2021/03/06 04:36:48;;;;;;;6.97;5.32;;;;;;;;;;4192495;34;20118;-52
2021/03/06 04:39:15;;;;;;;7.40;5.72;;;;;;;;;;4192784;34;20121;-53
2021/03/06 04:41:41;;;;;;;7.00;4.95;;;;;;;;;;4192211;34;20141;-51
2021/03/06 04:44:08;;;;;;;7.40;5.53;;;;;;;;;;4168333;34;20102;-56
2021/03/06 04:46:35;;;;;;;8.25;6.35;;;;;;;;;;4192711;34;20095;-51
2021/03/06 04:49:02;;;;;;;7.25;6.07;;;;;;;;;;4179752;34;20136;-55
2021/03/06 04:51:29;;;;;;;5.87;5.22;;;;;;;;;;4191575;34;20501;-49
2021/03/06 04:53:56;;;;;;;7.87;5.32;;;;;;;;;;4192389;34;20102;-52
2021/03/06 04:56:23;;;;;;;7.07;5.07;;;;;;;;;;4179608;34;20114;-52
2021/03/06 04:58:51;;;;;;;6.55;4.68;;;;;;;;;;4192396;34;20083;-56
2021/03/06 05:01:17;;;;;;;7.87;5.78;;;;;;;;;;4192062;34;20610;-48
2021/03/06 05:03:44;;;;;;;11.60;7.55;;;;;;;;;;4191887;34;20114;-51
2021/03/06 05:06:11;;;;;;;17.60;10.07;;;;;;;;;;4191795;34;20115;-51
2021/03/06 05:08:39;;;;;;;18.75;11.85;;;;;;;;;;4167988;34;20094;-54
2021/03/06 05:11:06;;;;;;;16.58;10.68;;;;;;;;;;4179362;34;20176;-51
2021/03/06 05:13:35;;;;;;;18.37;11.60;;;;;;;;;;4192224;34;20473;-51
2021/03/06 05:16:02;;;;;;;16.55;10.38;;;;;;;;;;4192022;34;20118;-52
2021/03/06 05:18:30;;;;;;;19.80;11.48;;;;;;;;;;4179376;34;20102;-47
2021/03/06 05:20:58;;;;;;;18.92;10.38;;;;;;;;;;4192067;34;20122;-48
2021/03/06 05:23:25;;;;;;;17.87;10.45;;;;;;;;;;4179403;34;20185;-52
2021/03/06 05:25:51;;;;;;;16.15;10.07;;;;;;;;;;4179545;34;20197;-55
2021/03/06 05:28:24;;;;;;;16.62;10.15;;;;;;;;;;4191796;34;20541;-50
2021/03/06 05:30:50;;;;;;;20.02;10.75;;;;;;;;;;4187070;34;20106;-48
2021/03/06 05:33:18;;;;;;;22.40;10.43;;;;;;;;;;4178088;34;20187;-48
2021/03/06 05:35:46;;;;;;;20.00;11.27;;;;;;;;;;4178208;34;20593;-48
2021/03/06 05:38:13;;;;;;;19.65;10.93;;;;;;;;;;4178275;34;20636;-51
2021/03/06 05:40:45;;;;;;;21.48;11.40;;;;;;;;;;4178205;34;20124;-51
2021/03/06 05:43:15;;;;;;;18.87;10.32;;;;;;;;;;4165343;34;20102;-55
2021/03/06 05:45:48;;;;;;;16.58;8.68;;;;;;;;;;4178172;34;20103;-54
2021/03/06 05:48:23;;;;;;;5.97;4.68;;;;;;;;;;4178128;34;20125;-53
2021/03/06 05:50:52;;;;;;;4.15;3.75;;;;;;;;;;4176555;34;20121;-50
2021/03/06 05:53:20;;;;;;;4.85;3.50;;;;;;;;;;4154488;34;20510;-48
2021/03/06 05:55:49;;;;;;;4.28;3.60;;;;;;;;;;4165501;34;20133;-48
2021/03/06 05:58:16;;;;;;;4.15;3.33;;;;;;;;;;4154280;34;20117;-48
2021/03/06 06:00:42;;;;;;;4.53;3.40;;;;;;;;;;4165459;34;20482;-53
2021/03/06 06:03:15;;;;;;;3.53;3.10;;;;;;;;;;4165106;34;20190;-51
2021/03/06 06:05:45;;;;;;;4.72;3.50;;;;;;;;;;4165851;34;20094;-50
2021/03/06 06:08:15;;;;;;;3.35;2.85;;;;;;;;;;4177992;34;20168;-54
2021/03/06 06:10:42;;;;;;;6.05;4.60;;;;;;;;;;4165391;34;20122;-51
2021/03/06 06:13:08;;;;;;;10.02;6.30;;;;;;;;;;4165283;34;20118;-56
2021/03/06 06:16:06;;;;;;;10.20;5.47;;;;;;;;;;4166935;34;20214;-55
2021/03/06 06:18:33;;;;;;;13.88;8.52;;;;;;;;;;4178036;34;20614;-52
2021/03/06 06:20:59;;;;;;;18.75;11.02;;;;;;;;;;4164844;34;20560;-51
2021/03/06 06:23:25;;;;;;;12.25;8.10;;;;;;;;;;4177994;34;20110;-49
2021/03/06 06:25:51;;;;;;;12.30;8.20;;;;;;;;;;4165161;34;20586;-53
2021/03/06 06:28:18;;;;;;;9.82;5.78;;;;;;;;;;4165029;34;20144;-49
2021/03/06 06:31:11;;;;;;;7.03;5.00;;;;;;;;;;4178060;34;20207;-54
2021/03/06 06:33:39;;;;;;;6.87;4.70;;;;;;;;;;4174079;34;20129;-53
2021/03/06 06:36:05;;;;;;;6.60;4.68;;;;;;;;;;4177722;34;20119;-55
2021/03/06 06:38:42;;;;;;;6.85;4.60;;;;;;;;;;4177621;34;20106;-50
2021/03/06 06:41:09;;;;;;;5.20;3.47;;;;;;;;;;4177445;34;20118;-54
2021/03/06 06:43:35;;;;;;;5.57;3.70;;;;;;;;;;4164959;34;20451;-49
2021/03/06 06:46:01;;;;;;;4.10;3.08;;;;;;;;;;4177430;34;20117;-52
2021/03/06 06:48:27;;;;;;;5.10;2.78;;;;;;;;;;4177752;34;20498;-49
2021/03/06 06:51:06;;;;;;;3.20;2.90;;;;;;;;;;4164696;34;20117;-51
2021/03/06 06:53:32;;;;;;;3.95;3.35;;;;;;;;;;4165146;34;20545;-54
2021/03/06 06:55:59;;;;;;;3.60;2.90;;;;;;;;;;4177113;34;20134;-56
2021/03/06 06:58:34;;;;;;;4.95;3.00;;;;;;;;;;4177597;34;20121;-50
2021/03/06 07:01:00;;;;;;;3.35;3.03;;;;;;;;;;4177221;34;20173;-49
2021/03/06 07:03:26;;;;;;;4.28;3.37;;;;;;;;;;4177282;34;20118;-55
2021/03/06 07:05:52;;;;;;;4.32;3.40;;;;;;;;;;4164674;34;20103;-47
2021/03/06 07:08:22;;;;;;;3.42;3.10;;;;;;;;;;4164539;34;20165;-51
2021/03/06 07:10:48;;;;;;;5.03;3.47;;;;;;;;;;4177337;34;20517;-53
2021/03/06 07:13:15;;;;;;;4.25;2.80;;;;;;;;;;4177372;34;20118;-52
2021/03/06 07:15:42;;;;;;;4.82;2.75;;;;;;;;;;4164054;34;20095;-53
2021/03/06 07:18:15;;;;;;;2.97;2.67;;;;;;;;;;4177075;34;20485;-48
2021/03/06 07:20:42;;;;;;;3.00;2.22;;;;;;;;;;4177020;34;20121;-54
2021/03/06 07:23:17;;;;;;;3.60;2.65;;;;;;;;;;4176995;34;20126;-49
2021/03/06 07:25:43;;;;;;;3.40;2.87;;;;;;;;;;4177234;34;20099;-55
2021/03/06 07:28:10;;;;;;;3.50;2.42;;;;;;;;;;4177022;34;20185;-52
2021/03/06 07:30:38;;;;;;;2.90;2.40;;;;;;;;;;4164431;34;20110;-54
2021/03/06 07:33:06;;;;;;;3.70;2.30;;;;;;;;;;4177160;34;20118;-51
2021/03/06 07:35:38;;;;;;;2.80;2.40;;;;;;;;;;4176930;34;20112;-50
2021/03/06 07:38:06;;;;;;;4.93;2.58;;;;;;;;;;4177429;34;20129;-48
2021/03/06 07:40:48;;;;;;;4.78;2.75;;;;;;;;;;4177087;34;20176;-52
2021/03/06 07:43:24;;;;;;;3.58;2.60;;;;;;;;;;4165277;34;20517;-52
2021/03/06 07:45:52;;;;;;;4.93;2.92;;;;;;;;;;4165177;34;20110;-46
2021/03/06 07:48:19;;;;;;;5.60;2.75;;;;;;;;;;4164291;34;20560;-51
2021/03/06 07:50:53;;;;;;;4.30;2.80;;;;;;;;;;4176775;34;20503;-48
2021/03/06 07:53:25;;;;;;;4.68;2.30;;;;;;;;;;4165112;34;20525;-51
2021/03/06 07:55:54;;;;;;;5.75;2.87;;;;;;;;;;4153837;34;20137;-50
2021/03/06 07:58:23;;;;;;;5.53;2.62;;;;;;;;;;4176800;34;20094;-56
2021/03/06 08:00:50;;;;;;;3.47;2.53;;;;;;;;;;4164048;34;20102;-47
2021/03/06 08:03:24;;;;;;;5.70;2.62;;;;;;;;;;4176468;34;20549;-49
2021/03/06 08:06:19;;;;;;;5.18;2.90;;;;;;;;;;4176352;34;20137;-52
2021/03/06 08:08:45;;;;;;;4.78;2.72;;;;;;;;;;4173048;34;20141;-54
2021/03/06 08:11:12;;;;;;;3.85;2.80;;;;;;;;;;4176686;34;20106;-56
2021/03/06 08:13:48;;;;;;;3.42;2.60;;;;;;;;;;4176632;34;20098;-53
2021/03/06 08:16:24;;;;;;;5.28;3.10;;;;;;;;;;4163986;34;20243;-52
2021/03/06 08:19:12;;;;;;;5.37;3.17;;;;;;;;;;4176588;34;20235;-49
2021/03/06 08:21:42;;;;;;;4.30;2.70;;;;;;;;;;4176704;34;20219;-55
2021/03/06 08:24:14;;;;;;;4.05;3.42;;;;;;;;;;4164147;34;20137;-51
2021/03/06 08:26:42;;;;;;;4.78;2.85;;;;;;;;;;4177986;34;20510;-52
2021/03/06 08:29:21;;;;;;;6.62;3.30;;;;;;;;;;4178874;34;20137;-46
2021/03/06 08:32:06;;;;;;;4.65;3.30;;;;;;;;;;4178546;34;20106;-52
2021/03/06 08:34:52;;;;;;;4.53;3.42;;;;;;;;;;4178442;34;20519;-54
2021/03/06 08:37:22;;;;;;;5.70;2.75;;;;;;;;;;4178585;34;20146;-52
2021/03/06 08:39:56;;;;;;;4.70;3.15;;;;;;;;;;4178547;34;20118;-50
2021/03/06 08:42:23;;;;;;;7.53;3.53;;;;;;;;;;4166633;34;20267;-52
2021/03/06 08:44:49;;;;;;;5.10;2.80;;;;;;;;;;4178479;34;20581;-50
2021/03/06 08:47:26;;;;;;;6.75;3.00;;;;;;;;;;4166102;34;20126;-47
2021/03/06 08:49:53;;;;;;;6.18;3.20;;;;;;;;;;4178509;34;20675;-48
2021/03/06 08:52:20;;;;;;;4.82;3.12;;;;;;;;;;4178369;34;20202;-50
2021/03/06 08:54:46;;;;;;;4.97;3.35;;;;;;;;;;4178293;34;20194;-53
2021/03/06 08:57:32;;;;;;;5.35;3.08;;;;;;;;;;4178409;34;20139;-54
2021/03/06 08:59:59;;;;;;;4.25;3.22;;;;;;;;;;4178623;34;20110;-54
2021/03/06 09:02:32;;;;;;;5.07;2.87;;;;;;;;;;4178277;34;20198;-51
2021/03/06 09:05:28;;;;;;;6.43;3.70;;;;;;;;;;4178281;34;20203;-54
2021/03/06 09:07:56;;;;;;;;;;;;;;;;;;4178345;34;20620;-57
2021/03/06 09:10:28;;;;;;;5.22;3.25;;;;;;;;;;4178503;34;20405;-51
2021/03/06 09:12:57;;;;;;;5.72;3.40;;;;;;;;;;4165650;34;20114;-51
2021/03/06 09:15:28;;;;;;;9.13;3.37;;;;;;;;;;4178275;34;20107;-55
2021/03/06 09:18:01;;;;;;;6.18;3.20;;;;;;;;;;4178162;34;20553;-53
2021/03/06 09:20:36;;;;;;;6.55;3.50;;;;;;;;;;4177116;34;20213;-50
2021/03/06 09:23:02;;;;;;;4.43;3.80;;;;;;;;;;4178187;34;20110;-49
2021/03/06 09:25:38;;;;;;;5.03;3.90;;;;;;;;;;4178204;34;20161;-58
2021/03/06 09:28:06;;;;;;;4.12;3.37;;;;;;;;;;4165449;34;20098;-49
2021/03/06 09:30:41;;;;;;;5.47;3.50;;;;;;;;;;4178349;34;20110;-48
2021/03/06 09:33:29;;;;;;;;;;;;;;;;;;4178416;34;20206;-49
2021/03/06 09:36:08;;;;;;;4.03;3.10;;;;;;;;;;4177891;34;19985;-55
2021/03/06 09:38:42;;;;;;;4.68;3.30;;;;;;;;;;4177804;34;20612;-52
2021/03/06 09:41:09;;;;;;;7.57;3.65;;;;;;;;;;4178194;34;20569;-55
2021/03/06 09:43:36;;;;;;;7.80;3.70;;;;;;;;;;4177994;34;20559;-56
2021/03/06 09:46:03;;;;;;;4.70;3.60;;;;;;;;;;4177871;34;20513;-51
2021/03/06 09:48:30;;;;;;;7.15;3.58;;;;;;;;;;4177967;34;20129;-49
2021/03/06 09:50:58;;;;;;;5.32;4.03;;;;;;;;;;4165292;34;20187;-57
2021/03/06 09:53:27;;;;;;;4.85;4.35;;;;;;;;;;4177998;34;20632;-57
2021/03/06 09:56:09;;;;;;;4.43;3.80;;;;;;;;;;4178072;34;20101;-53
2021/03/06 09:58:40;;;;;;;7.00;4.10;;;;;;;;;;4177936;34;20132;-51
2021/03/06 10:01:19;;;;;;;6.03;4.60;;;;;;;;;;4177701;34;20678;-52
2021/03/06 10:03:49;;;;;;;7.40;4.70;;;;;;;;;;4178123;34;20122;-54
2021/03/06 10:06:17;;;;;;;7.68;4.32;;;;;;;;;;4177648;34;20110;-48
2021/03/06 10:08:53;;;;;;;7.37;4.68;;;;;;;;;;4154016;34;20493;-50
2021/03/06 10:11:25;;;;;;;5.47;3.90;;;;;;;;;;4165297;34;20118;-51
2021/03/06 10:13:52;;;;;;;4.78;3.58;;;;;;;;;;4165001;34;20103;-49
2021/03/06 10:16:19;;;;;;;7.28;4.40;;;;;;;;;;4177876;34;20106;-52
2021/03/06 10:18:45;;;;;;;5.87;3.65;;;;;;;;;;4177708;34;20122;-49
2021/03/06 10:21:19;;;;;;;4.40;3.62;;;;;;;;;;4177658;34;20129;-48
2021/03/06 10:23:46;;;;;;;5.18;3.78;;;;;;;;;;4177673;34;20141;-55
2021/03/06 10:26:25;;;;;;;6.05;3.62;;;;;;;;;;4177577;34;20229;-53
2021/03/06 10:29:01;;;;;;;6.82;4.15;;;;;;;;;;4177644;34;20097;-55
2021/03/06 10:31:37;;;;;;;7.37;5.90;;;;;;;;;;4177790;34;20545;-55
2021/03/06 10:34:23;;;;;;;7.53;4.15;;;;;;;;;;4165022;34;20125;-47
2021/03/06 10:37:08;;;;;;;7.22;4.18;;;;;;;;;;4177367;34;20141;-51
2021/03/06 10:39:49;;;;;;;4.47;3.92;;;;;;;;;;4165215;34;20530;-52
2021/03/06 10:42:15;;;;;;;7.72;4.07;;;;;;;;;;4177581;34;20094;-53
2021/03/06 10:44:41;;;;;;;6.82;4.10;;;;;;;;;;4177518;34;20097;-55
2021/03/06 10:47:07;;;;;;;5.12;3.75;;;;;;;;;;4177395;34;20138;-50
2021/03/06 10:49:45;;;;;;;5.35;3.75;;;;;;;;;;4176602;34;20170;-54
2021/03/06 10:52:43;;;;;;;7.62;4.90;;;;;;;;;;4177498;34;20575;-50
2021/03/06 10:55:10;;;;;;;4.40;3.50;;;;;;;;;;4161437;34;20222;-54
2021/03/06 10:57:36;;;;;;;6.53;3.87;;;;;;;;;;4177504;34;20550;-50
2021/03/06 11:00:02;;;;;;;6.85;3.90;;;;;;;;;;4173248;34;20131;-56
2021/03/06 11:02:29;;;;;;;4.97;3.67;;;;;;;;;;4164662;34;20612;-53
2021/03/06 11:05:15;;;;;;;4.47;3.53;;;;;;;;;;4177060;34;20596;-56
2021/03/06 11:07:41;;;;;;;;;;;;;;;;;;4178011;34;20126;-52
2021/03/06 11:10:07;;;;;;;4.32;3.55;;;;;;;;;;4177545;34;19999;-49
2021/03/06 11:12:33;;;;;;;5.90;3.53;;;;;;;;;;4177323;34;20110;-50
2021/03/06 11:15:09;;;;;;;4.93;3.70;;;;;;;;;;4177130;34;20106;-51
2021/03/06 11:17:35;;;;;;;;;;;;;;;;;;4177619;34;20095;-47
2021/03/06 11:20:02;;;;;;;4.65;3.45;;;;;;;;;;4177175;34;20112;-52
2021/03/06 11:22:28;;;;;;;4.28;3.00;;;;;;;;;;4164513;34;20109;-54
2021/03/06 11:24:54;;;;;;;4.72;3.42;;;;;;;;;;4177097;34;20107;-53
2021/03/06 11:27:19;;;;;;;7.05;3.37;;;;;;;;;;4177245;34;20526;-56
2021/03/06 11:29:45;;;;;;;6.15;3.47;;;;;;;;;;4177002;34;20185;-53
2021/03/06 11:32:11;;;;;;;5.72;3.67;;;;;;;;;;4177237;34;20461;-50
2021/03/06 11:34:37;;;;;;;5.18;3.65;;;;;;;;;;4176946;34;20133;-57
2021/03/06 11:37:09;;;;;;;6.55;3.67;;;;;;;;;;4177177;34;20153;-52
2021/03/06 11:39:35;;;;;;;4.37;3.80;;;;;;;;;;4177062;34;20105;-58
2021/03/06 11:42:01;;;;;;;6.07;3.50;;;;;;;;;;4176945;34;20553;-54
2021/03/06 11:44:27;;;;;;;5.45;3.45;;;;;;;;;;4177037;34;20214;-50
2021/03/06 11:46:53;;;;;;;5.62;4.40;;;;;;;;;;4177017;34;20114;-49
2021/03/06 11:49:20;;;;;;;12.40;7.37;;;;;;;;;;4176843;34;20458;-53
2021/03/06 11:51:46;;;;;;;11.32;5.97;;;;;;;;;;4176580;34;20110;-57
2021/03/06 11:54:11;;;;;;;14.80;7.15;;;;;;;;;;4176847;34;20102;-49
2021/03/06 11:56:37;;;;;;;7.62;4.45;;;;;;;;;;4163934;34;20286;-54
2021/03/06 11:59:03;;;;;;;7.37;4.82;;;;;;;;;;4175422;34;20127;-50
2021/03/06 12:01:30;;;;;;;4.90;3.72;;;;;;;;;;4178205;34;20132;-50
2021/03/06 12:03:57;;;;;;;8.52;5.30;;;;;;;;;;4179138;34;20155;-50
2021/03/06 12:06:25;;;;;;;8.98;5.60;;;;;;;;;;4166074;34;20515;-50
2021/03/06 12:08:53;;;;;;;9.32;5.57;;;;;;;;;;4179016;34;20542;-53
2021/03/06 12:11:19;;;;;;;8.18;5.65;;;;;;;;;;4178782;34;20663;-52
2021/03/06 12:13:45;;;;;;;9.60;6.12;;;;;;;;;;4178825;34;20196;-52
2021/03/06 12:16:11;;;;;;;13.20;8.00;;;;;;;;;;4178891;34;20187;-51
2021/03/06 12:18:37;;;;;;;10.68;5.75;;;;;;;;;;4178689;34;20094;-53
2021/03/06 12:21:03;;;;;;;7.70;4.47;;;;;;;;;;4178670;34;20521;-52
2021/03/06 12:23:29;;;;;;;5.68;4.40;;;;;;;;;;4178708;34;20214;-54
2021/03/06 12:25:55;;;;;;;6.75;4.60;;;;;;;;;;4178725;34;20458;-54
2021/03/06 12:28:21;;;;;;;7.95;4.57;;;;;;;;;;4178646;34;20130;-52
2021/03/06 12:30:47;;;;;;;6.25;3.85;;;;;;;;;;4178626;34;20124;-55
2021/03/06 12:33:12;;;;;;;5.07;4.10;;;;;;;;;;4166248;34;20180;-55
2021/03/06 12:35:38;;;;;;;6.72;4.00;;;;;;;;;;4165810;34;20775;-54
2021/03/06 12:38:04;;;;;;;8.13;5.20;;;;;;;;;;4178801;34;20114;-48
2021/03/06 12:40:31;;;;;;;7.62;4.53;;;;;;;;;;4178521;34;20521;-52
2021/03/06 12:42:57;;;;;;;6.00;4.15;;;;;;;;;;4178467;34;20604;-49
2021/03/06 12:45:22;;;;;;;6.22;4.12;;;;;;;;;;4178604;34;20275;-50
2021/03/06 12:47:48;;;;;;;4.85;3.58;;;;;;;;;;4178475;34;20263;-53
2021/03/06 12:50:15;;;;;;;6.55;3.78;;;;;;;;;;4166013;34;20431;-48
2021/03/06 12:52:41;;;;;;;4.87;3.90;;;;;;;;;;4178372;34;20101;-51
2021/03/06 12:55:07;;;;;;;5.43;3.90;;;;;;;;;;4178306;34;20102;-49
2021/03/06 12:57:34;;;;;;;5.07;3.42;;;;;;;;;;4178341;34;20203;-48
2021/03/06 13:00:00;;;;;;;4.03;3.15;;;;;;;;;;4178167;34;20197;-59
2021/03/06 13:02:26;;;;;;;5.05;3.55;;;;;;;;;;4178284;34;20134;-52
2021/03/06 13:04:52;;;;;;;4.62;3.87;;;;;;;;;;4178316;34;20133;-51
2021/03/06 13:07:18;;;;;;;5.03;4.30;;;;;;;;;;4165459;34;20541;-51
2021/03/06 13:09:44;;;;;;;4.50;3.60;;;;;;;;;;4178164;34;20114;-48
2021/03/06 13:12:10;;;;;;;4.32;3.40;;;;;;;;;;4177417;34;20450;-54
2021/03/06 13:14:36;;;;;;;5.22;3.62;;;;;;;;;;4178138;34;20114;-53
2021/03/06 13:17:02;;;;;;;4.00;3.40;;;;;;;;;;4178187;34;20138;-53
2021/03/06 13:19:28;;;;;;;3.67;3.28;;;;;;;;;;4178152;34;20126;-52
2021/03/06 13:21:54;;;;;;;5.43;3.47;;;;;;;;;;4178174;34;20118;-50
2021/03/06 13:24:19;;;;;;;4.93;3.90;;;;;;;;;;4178176;34;20214;-52
2021/03/06 13:26:45;;;;;;;4.80;4.07;;;;;;;;;;4177972;34;20162;-49
2021/03/06 13:29:11;;;;;;;4.07;3.37;;;;;;;;;;4165381;34;20114;-50
2021/03/06 13:31:37;;;;;;;4.45;3.30;;;;;;;;;;4177870;34;20110;-48
2021/03/06 13:34:03;;;;;;;4.37;3.37;;;;;;;;;;4177984;34;20113;-49
2021/03/06 13:36:29;;;;;;;6.25;4.15;;;;;;;;;;4177788;34;20106;-51
2021/03/06 13:38:55;;;;;;;4.82;4.12;;;;;;;;;;4178006;34;20629;-50
2021/03/06 13:41:21;;;;;;;5.55;4.40;;;;;;;;;;4178044;34;20521;-52
2021/03/06 13:43:47;;;;;;;6.30;4.50;;;;;;;;;;4177887;34;20555;-51
2021/03/06 13:46:13;;;;;;;7.00;5.30;;;;;;;;;;4177704;34;20295;-51
2021/03/06 13:48:39;;;;;;;10.93;6.20;;;;;;;;;;4177834;34;20214;-48
2021/03/06 13:51:05;;;;;;;12.73;11.43;;;;;;;;;;4177776;34;20533;-48
2021/03/06 13:53:31;;;;;;;8.98;6.68;;;;;;;;;;4177891;34;20137;-51
2021/03/06 13:55:58;;;;;;;9.20;7.22;;;;;;;;;;4177623;34;20130;-52
2021/03/06 13:58:24;;;;;;;9.13;6.78;;;;;;;;;;4177774;34;20126;-53
2021/03/06 14:00:49;;;;;;;9.40;7.93;;;;;;;;;;4177734;34;20126;-49
2021/03/06 14:03:15;;;;;;;10.48;6.57;;;;;;;;;;4178022;34;20113;-53
2021/03/06 14:05:41;;;;;;;8.98;6.47;;;;;;;;;;4177617;34;20099;-48
2021/03/06 14:08:07;;;;;;;7.35;6.03;;;;;;;;;;4177683;34;20530;-48
2021/03/06 14:10:33;;;;;;;8.65;6.25;;;;;;;;;;4177697;34;20118;-51
2021/03/06 14:12:59;;;;;;;7.25;5.35;;;;;;;;;;4177880;34;20513;-52
2021/03/06 14:15:25;;;;;;;6.55;5.00;;;;;;;;;;4177630;34;20132;-54
2021/03/06 14:17:51;;;;;;;6.78;4.65;;;;;;;;;;4177820;34;20144;-53
2021/03/06 14:20:17;;;;;;;9.02;6.70;;;;;;;;;;4177635;34;20118;-52
2021/03/06 14:22:43;;;;;;;7.65;6.22;;;;;;;;;;4177858;34;20157;-53
2021/03/06 14:25:10;;;;;;;8.30;6.18;;;;;;;;;;4177546;34;20561;-51
2021/03/06 14:27:36;;;;;;;7.07;5.50;;;;;;;;;;4177736;34;20197;-54
2021/03/06 14:30:03;;;;;;;6.25;4.40;;;;;;;;;;4164947;34;20125;-50
2021/03/06 14:32:30;;;;;;;5.00;4.30;;;;;;;;;;4177547;34;20123;-53
2021/03/06 14:34:56;;;;;;;12.82;8.48;;;;;;;;;;4177380;34;20111;-53
2021/03/06 14:37:22;;;;;;;20.48;16.45;;;;;;;;;;4177486;34;20122;-51
2021/03/06 14:39:48;;;;;;;9.35;5.50;;;;;;;;;;4177594;34;20098;-51
2021/03/06 14:42:15;;;;;;;8.48;6.72;;;;;;;;;;4177678;34;20106;-51
2021/03/06 14:44:41;;;;;;;9.23;6.10;;;;;;;;;;4177701;34;20126;-51
2021/03/06 14:47:07;;;;;;;10.55;6.80;;;;;;;;;;4177522;34;20138;-50
2021/03/06 14:49:33;;;;;;;13.38;8.23;;;;;;;;;;4177430;34;20114;-50
2021/03/06 14:52:00;;;;;;;13.00;9.55;;;;;;;;;;4164818;34;20130;-53
2021/03/06 14:54:26;;;;;;;16.90;10.23;;;;;;;;;;4177484;34;20117;-51
2021/03/06 14:56:51;;;;;;;17.25;10.52;;;;;;;;;;4177166;34;20122;-51
2021/03/06 14:59:17;;;;;;;12.43;8.60;;;;;;;;;;4177288;34;20113;-53